Arnold Palmer Regional Airport


Codes: KLBE/LBE
Name: Arnold Palmer Regional Airport
City: Latrobe
Country: United States
Elevation: 1199 ft.
Wikipedia:

Photos at Arnold Palmer Regional Airport


   Photos courtesy of SpottingLog. You can add your own sightings and photos by signing up for a free trial today.



No photos found.

Weather at Arnold Palmer Regional Airport


Time (UTC)DescriptionTempratureWindCloud coverageVisibilityPressureHumidity
26-Jun-2024 00:00Broken Clouds27°C7 mph, SW60%10000m1011hPa59%
26-Jun-2024 03:00Broken Clouds24°C9 mph, SW52%10000m1011hPa73%
26-Jun-2024 06:00Light Rain20°C9 mph, SW76%10000m1011hPa92%
26-Jun-2024 09:00Overcast Clouds19°C7 mph, SW100%10000m1010hPa97%
26-Jun-2024 12:00Light Rain21°C11 mph, SW99%10000m1011hPa92%
26-Jun-2024 15:00Light Rain24°C9 mph, SW100%10000m1010hPa83%
26-Jun-2024 18:00Light Rain30°C13 mph, SW100%10000m1007hPa54%
26-Jun-2024 21:00Overcast Clouds27°C13 mph, W96%10000m1005hPa64%
27-Jun-2024 00:00Light Rain20°C18 mph, NW69%5460m1008hPa95%
27-Jun-2024 03:00Moderate Rain17°C0 mph, S100%5556m1010hPa98%
27-Jun-2024 06:00Light Rain16°C2 mph, NW100%10000m1010hPa97%
27-Jun-2024 09:00Broken Clouds14°C2 mph, W60%10000m1010hPa99%
27-Jun-2024 12:00Broken Clouds16°C2 mph, NW64%10000m1013hPa95%
27-Jun-2024 15:00Light Rain19°C4 mph, NW76%10000m1013hPa80%
27-Jun-2024 18:00Light Rain23°C7 mph, W67%10000m1013hPa59%
27-Jun-2024 21:00Few Clouds25°C7 mph, W12%10000m1012hPa51%
28-Jun-2024 00:00Clear Sky20°C4 mph, N7%10000m1013hPa76%
28-Jun-2024 03:00Few Clouds15°C4 mph, NE22%10000m1016hPa86%
28-Jun-2024 06:00Scattered Clouds13°C4 mph, E50%10000m1016hPa90%
28-Jun-2024 09:00Clear Sky13°C4 mph, E4%10000m1016hPa85%
28-Jun-2024 12:00Scattered Clouds17°C4 mph, E48%10000m1017hPa75%
28-Jun-2024 15:00Scattered Clouds25°C9 mph, SE45%10000m1015hPa55%
28-Jun-2024 18:00Broken Clouds30°C4 mph, S55%10000m1013hPa45%
28-Jun-2024 21:00Overcast Clouds27°C9 mph, SE93%10000m1012hPa60%
29-Jun-2024 00:00Broken Clouds28°C16 mph, S84%10000m1013hPa55%
29-Jun-2024 03:00Light Rain22°C9 mph, S82%10000m1014hPa86%
29-Jun-2024 06:00Light Rain21°C4 mph, SE91%10000m1015hPa94%
29-Jun-2024 09:00Light Rain21°C11 mph, S100%10000m1015hPa96%
29-Jun-2024 12:00Overcast Clouds21°C4 mph, SE100%10000m1015hPa96%
29-Jun-2024 15:00Overcast Clouds26°C13 mph, SW100%10000m1015hPa73%
29-Jun-2024 18:00Overcast Clouds25°C13 mph, SW100%10000m1015hPa80%
29-Jun-2024 21:00Overcast Clouds28°C13 mph, SW100%10000m1013hPa73%
30-Jun-2024 00:00Moderate Rain24°C11 mph, SW100%6680m1014hPa93%
30-Jun-2024 03:00Light Rain22°C9 mph, SW100%10000m1015hPa97%
30-Jun-2024 06:00Light Rain22°C9 mph, SW100%8470m1015hPa99%
30-Jun-2024 09:00Overcast Clouds19°C7 mph, W100%10000m1017hPa99%
30-Jun-2024 12:00Light Rain18°C9 mph, NW100%10000m1019hPa97%
30-Jun-2024 15:00Overcast Clouds19°C9 mph, NW95%10000m1019hPa72%
30-Jun-2024 18:00Broken Clouds23°C11 mph, NW58%10000m1019hPa53%
30-Jun-2024 21:00Scattered Clouds21°C13 mph, NW26%10000m1020hPa60%